This is the latest recevied weather packets stored in our database for station/object N2WH. If no packets are shown the sender has not sent any weather packets the latest 10 day(s).
| Time | Temp. | Humidity | Pressure | Rain* | Wind** | Luminosity | Snow |
|---|---|---|---|---|---|---|---|
| 1777392987 | 17.78° C | 43% | 1022.1 hPa | 0 mm | - | 332 W/m² | - |
| 1777392379 | 17.78° C | 43% | 1022.4 hPa | 0 mm | - | 406 W/m² | - |
| 1777390858 | 16.67° C | 46% | 1022.5 hPa | 0 mm | - | 427 W/m² | - |
| 1777390555 | 16.67° C | 46% | 1022.6 hPa | 0 mm | - | 350 W/m² | - |
| 1777390251 | 16.67° C | 45% | 1022.7 hPa | 0 mm | - | 379 W/m² | - |
| 1777389947 | 16.67° C | 46% | 1022.6 hPa | 0 mm | - | 368 W/m² | - |
| 1777388736 | 16.11° C | 47% | 1022.7 hPa | 0 mm | - | 278 W/m² | - |
| 1777388132 | 16.11° C | 44% | 1022.7 hPa | 0 mm | - | 281 W/m² | - |
| 1777386916 | 16.67° C | 43% | 1022.7 hPa | 0 mm | - | 372 W/m² | - |
| 1777386614 | 16.67° C | 43% | 1022.7 hPa | 0 mm | - | 429 W/m² | - |
| 1777385704 | 16.67° C | 41% | 1022.7 hPa | 0 mm | - | 536 W/m² | - |
| 1777385401 | 16.11° C | 44% | 1022.6 hPa | 0 mm | - | 517 W/m² | - |
| 1777385098 | 16.11° C | 43% | 1022.5 hPa | 0 mm | - | 371 W/m² | - |
| 1777384185 | 15.56° C | 45% | 1022.6 hPa | 0 mm | - | 435 W/m² | - |
| 1777383578 | 15° C | 47% | 1022.5 hPa | 0 mm | - | 378 W/m² | - |
| 1777383274 | 15° C | 48% | 1022.7 hPa | 0 mm | - | 154 W/m² | - |
| 1777382971 | 15° C | 49% | 1022.8 hPa | 0 mm | - | 154 W/m² | - |
| 1777382362 | 13.89° C | 53% | 1022.7 hPa | 0 mm | - | 300 W/m² | - |
| 1777382059 | 13.33° C | 56% | 1022.8 hPa | 0 mm | - | 157 W/m² | - |
| 1777381755 | 13.33° C | 59% | 1022.6 hPa | 0 mm | - | 92 W/m² | - |
| 1777381145 | 12.78° C | 58% | 1022.9 hPa | 0 mm | - | 70 W/m² | - |
| 1777380843 | 12.22° C | 63% | 1022.6 hPa | 0 mm | - | 84 W/m² | - |
| 1777379628 | 12.22° C | 60% | 1022.8 hPa | 0 mm | - | 55 W/m² | - |
| 1777379324 | 12.22° C | 60% | 1022.6 hPa | 0 mm | - | 138 W/m² | - |
| 1777378105 | 11.11° C | 61% | 1022.8 hPa | 0 mm | - | 178 W/m² | - |
* Rain latest hour (hover to see other rain measurements)
** Current wind speed in m/s (hover to see current wind gust speed)